createdAt,value
2019-04-23T00:01:23.000Z,99184
2019-04-23T00:46:28.000Z,99142
2019-04-23T00:47:41.000Z,99139
2019-04-23T00:49:41.000Z,99142
2019-04-23T00:51:41.000Z,99133
2019-04-23T00:53:31.000Z,99139
2019-04-23T00:54:41.000Z,99131
2019-04-23T00:56:56.000Z,99124
2019-04-23T00:58:31.000Z,99119
2019-04-23T01:00:34.000Z,99119
2019-04-23T01:01:36.000Z,99115
2019-04-23T01:03:41.000Z,99118
2019-04-23T01:05:38.000Z,99125
2019-04-23T01:07:32.000Z,99118
2019-04-23T01:08:41.000Z,99117
2019-04-23T01:12:35.000Z,99116
2019-04-23T01:13:38.000Z,99115
2019-04-23T01:15:40.000Z,99119
2019-04-23T01:17:33.000Z,99114
2019-04-23T01:18:41.000Z,99111
2019-04-23T01:19:41.000Z,99116
2019-04-23T01:28:11.000Z,99110
2019-04-23T01:29:12.000Z,99106
2019-04-23T01:30:19.000Z,99103
2019-04-23T01:31:26.000Z,99103
2019-04-23T01:33:26.000Z,99096
2019-04-23T01:35:16.000Z,99106
2019-04-23T01:36:26.000Z,99104
2019-04-23T01:37:26.000Z,99099
2019-04-23T01:39:26.000Z,99106
2019-04-23T01:40:26.000Z,99096
2019-04-23T01:42:26.000Z,99090
2019-04-23T01:44:26.000Z,99098
2019-04-23T01:45:26.000Z,99101
2019-04-23T01:46:26.000Z,99097
2019-04-23T01:48:17.000Z,99097
2019-04-23T01:49:26.000Z,99096
2019-04-23T01:50:27.000Z,99100
2019-04-23T01:52:24.000Z,99104
2019-04-23T01:54:26.000Z,99094
2019-04-23T01:55:26.000Z,99096
2019-04-23T02:07:10.000Z,99084
2019-04-23T02:08:14.000Z,99083
2019-04-23T02:09:18.000Z,99078
2019-04-23T02:10:26.000Z,99085
2019-04-23T02:12:17.000Z,99079
2019-04-23T02:13:26.000Z,99074
2019-04-23T02:16:21.000Z,99070
2019-04-23T02:17:26.000Z,99067
2019-04-23T02:20:23.000Z,99072
2019-04-23T02:27:08.000Z,99058
2019-04-23T02:29:24.000Z,99056
2019-04-23T02:31:24.000Z,99051
2019-04-23T02:33:24.000Z,99056
2019-04-23T02:37:24.000Z,99050
2019-04-23T02:39:22.000Z,99053
2019-04-23T02:47:08.000Z,99038
2019-04-23T02:48:24.000Z,99042
2019-04-23T02:49:24.000Z,99039
2019-04-23T02:57:25.000Z,99034
2019-04-23T03:07:19.000Z,99029
2019-04-23T03:08:34.000Z,99028
2019-04-23T03:10:33.000Z,99026
2019-04-23T03:12:34.000Z,99023
2019-04-23T03:14:34.000Z,99013
2019-04-23T03:16:34.000Z,99019
2019-04-23T03:17:34.000Z,99022
2019-04-23T03:19:34.000Z,99019
2019-04-23T03:20:35.000Z,99017
2019-04-23T03:21:35.000Z,99019
2019-04-23T03:37:09.000Z,99014
2019-04-23T03:38:24.000Z,99003
2019-04-23T03:39:24.000Z,99008
2019-04-23T03:40:24.000Z,99010
2019-04-23T03:43:24.000Z,99008
2019-04-23T03:45:24.000Z,99012
2019-04-23T03:46:24.000Z,99007
2019-04-23T03:47:24.000Z,99003
2019-04-23T03:49:24.000Z,99014
2019-04-23T03:57:11.000Z,99005
2019-04-23T04:03:23.000Z,99006
2019-04-23T04:04:23.000Z,99003
2019-04-23T04:05:27.000Z,99005
2019-04-23T04:07:27.000Z,98999
2019-04-23T04:10:27.000Z,99009
2019-04-23T04:17:11.000Z,99006
2019-04-23T04:18:27.000Z,99013
2019-04-23T04:20:27.000Z,99009
2019-04-23T04:22:27.000Z,99006
2019-04-23T04:24:27.000Z,99012
2019-04-23T04:25:27.000Z,99008
2019-04-23T04:27:27.000Z,99003
2019-04-23T04:30:28.000Z,99016
2019-04-23T04:37:19.000Z,98991
2019-04-23T04:39:34.000Z,99011
2019-04-23T04:41:34.000Z,99019
2019-04-23T04:42:34.000Z,99012
2019-04-23T04:45:34.000Z,99011
2019-04-23T04:46:34.000Z,99004
2019-04-23T04:48:34.000Z,99014
2019-04-23T04:57:04.000Z,99011
2019-04-23T04:58:24.000Z,99008
2019-04-23T05:00:24.000Z,99004
2019-04-23T05:02:24.000Z,99003
2019-04-23T05:04:24.000Z,98994
2019-04-23T05:06:16.000Z,99010
2019-04-23T05:09:25.000Z,99006
2019-04-23T05:17:09.000Z,98994
2019-04-23T05:21:24.000Z,99009
2019-04-23T05:22:24.000Z,99000
2019-04-23T05:24:24.000Z,99001
2019-04-23T05:26:21.000Z,99000
2019-04-23T05:27:24.000Z,98999
2019-04-23T05:29:24.000Z,98998
2019-04-23T05:30:24.000Z,98996
2019-04-23T05:33:24.000Z,99002
2019-04-23T05:34:25.000Z,98995
2019-04-23T05:36:17.000Z,98995
2019-04-23T05:37:24.000Z,98995
2019-04-23T05:47:09.000Z,98983
2019-04-23T05:49:24.000Z,98985
2019-04-23T05:51:24.000Z,98981
2019-04-23T05:55:24.000Z,98978
2019-04-23T05:57:24.000Z,98987
2019-04-23T06:02:24.000Z,98981
2019-04-23T06:04:39.000Z,98978
2019-04-23T06:06:24.000Z,98982
2019-04-23T06:08:12.000Z,98980
2019-04-23T06:09:19.000Z,98982
2019-04-23T06:17:08.000Z,98974
2019-04-23T06:18:17.000Z,98976
2019-04-23T06:20:24.000Z,98970
2019-04-23T06:22:24.000Z,98970
2019-04-23T06:24:10.000Z,98979
2019-04-23T06:25:13.000Z,98967
2019-04-23T06:26:24.000Z,98969
2019-04-23T06:28:39.000Z,98968
2019-04-23T06:30:17.000Z,98964
2019-04-23T06:31:24.000Z,98961
2019-04-23T06:32:25.000Z,98966
2019-04-23T06:34:11.000Z,98956
2019-04-23T06:35:13.000Z,98959
2019-04-23T06:36:22.000Z,98956
2019-04-23T06:37:25.000Z,98960
2019-04-23T06:47:09.000Z,98934
2019-04-23T06:48:23.000Z,98950
2019-04-23T06:49:24.000Z,98951
2019-04-23T06:50:24.000Z,98947
2019-04-23T06:52:18.000Z,98944
2019-04-23T07:35:02.000Z,98907
2019-04-23T07:36:08.000Z,98902
2019-04-23T07:38:13.000Z,98909
2019-04-23T07:39:18.000Z,98900
2019-04-23T07:41:07.000Z,98895
2019-04-23T07:44:18.000Z,98893
2019-04-23T07:46:06.000Z,98884
2019-04-23T07:47:06.000Z,98887
2019-04-23T07:49:18.000Z,98888
2019-04-23T07:50:18.000Z,98886
2019-04-23T07:57:09.000Z,98858
2019-04-23T07:58:16.000Z,98880
2019-04-23T07:59:24.000Z,98877
2019-04-23T08:00:24.000Z,98878
2019-04-23T08:01:24.000Z,98883
2019-04-23T08:03:24.000Z,98871
2019-04-23T08:04:24.000Z,98876
2019-04-23T08:06:25.000Z,98870
2019-04-23T08:08:18.000Z,98852
2019-04-23T08:09:22.000Z,98870
2019-04-23T08:17:16.000Z,98840
2019-04-23T08:18:29.000Z,98846
2019-04-23T08:20:23.000Z,98850
2019-04-23T08:23:30.000Z,98843
2019-04-23T08:25:31.000Z,98841
2019-04-23T08:27:25.000Z,98841
2019-04-23T08:29:31.000Z,98832
2019-04-23T08:32:31.000Z,98829
2019-04-23T08:37:09.000Z,98819
2019-04-23T08:38:24.000Z,98819
2019-04-23T08:42:24.000Z,98810
2019-04-23T08:43:24.000Z,98810
2019-04-23T08:45:24.000Z,98799
2019-04-23T08:46:24.000Z,98802
2019-04-23T08:48:24.000Z,98800
2019-04-23T08:52:24.000Z,98792
2019-04-23T08:54:24.000Z,98792
2019-04-23T08:55:24.000Z,98789
2019-04-23T08:56:25.000Z,98799
2019-04-23T09:07:09.000Z,98776
2019-04-23T09:10:24.000Z,98781
2019-04-23T09:12:24.000Z,98775
2019-04-23T09:14:24.000Z,98779
2019-04-23T09:16:23.000Z,98772
2019-04-23T09:17:24.000Z,98775
2019-04-23T09:18:24.000Z,98777
2019-04-23T09:21:24.000Z,98776
2019-04-23T09:23:13.000Z,98781
2019-04-23T09:24:24.000Z,98783
2019-04-23T09:27:18.000Z,98772
2019-04-23T09:30:16.000Z,98788
2019-04-23T09:32:10.000Z,98778
2019-04-23T09:33:24.000Z,98774
2019-04-23T09:35:24.000Z,98768
2019-04-23T09:36:24.000Z,98769
2019-04-23T09:47:19.000Z,98753
2019-04-23T09:48:26.000Z,98753
2019-04-23T09:51:34.000Z,98752
2019-04-23T09:54:34.000Z,98745
2019-04-23T09:56:34.000Z,98750
2019-04-23T09:58:30.000Z,98734
2019-04-23T09:59:34.000Z,98746
2019-04-23T10:01:28.000Z,98719
2019-04-23T10:03:19.000Z,98730
2019-04-23T10:04:21.000Z,98735
2019-04-23T10:06:26.000Z,98743
2019-04-23T10:07:32.000Z,98713
2019-04-23T10:09:19.000Z,98722
2019-04-23T10:10:20.000Z,98738
2019-04-23T10:12:19.000Z,98728
2019-04-23T10:14:35.000Z,98725
2019-04-23T10:16:21.000Z,98728
2019-04-23T10:18:20.000Z,98720
2019-04-23T10:19:34.000Z,98724
2019-04-23T10:21:19.000Z,98732
2019-04-23T10:22:19.000Z,98719
2019-04-23T10:23:49.000Z,98730
2019-04-23T10:25:19.000Z,98716
2019-04-23T10:26:19.000Z,98721
2019-04-23T10:27:34.000Z,98715
2019-04-23T10:29:19.000Z,98717
2019-04-23T10:30:34.000Z,98718
2019-04-23T10:31:36.000Z,98720
2019-04-23T10:33:34.000Z,98718
2019-04-23T10:34:34.000Z,98714
2019-04-23T10:36:19.000Z,98713
2019-04-23T10:37:46.000Z,98704
2019-04-23T10:39:19.000Z,98714
2019-04-23T10:40:28.000Z,98710
2019-04-23T10:42:19.000Z,98707
2019-04-23T10:43:35.000Z,98703
2019-04-23T10:45:19.000Z,98705
2019-04-23T10:46:34.000Z,98694
2019-04-23T10:48:33.000Z,98710
2019-04-23T10:49:34.000Z,98703
2019-04-23T10:51:34.000Z,98706
2019-04-23T10:53:33.000Z,98704
2019-04-23T10:55:33.000Z,98704
2019-04-23T10:59:33.000Z,98711
2019-04-23T11:00:33.000Z,98707
2019-04-23T11:07:19.000Z,98695
2019-04-23T11:08:34.000Z,98703
2019-04-23T11:10:34.000Z,98691
2019-04-23T11:12:34.000Z,98686
2019-04-23T11:13:34.000Z,98687
2019-04-23T11:16:34.000Z,98683
2019-04-23T11:18:24.000Z,98674
2019-04-23T11:19:34.000Z,98676
2019-04-23T11:21:28.000Z,98660
2019-04-23T11:26:31.000Z,98669
2019-04-23T11:27:34.000Z,98667
2019-04-23T11:38:39.000Z,98651
2019-04-23T11:40:11.000Z,98656
2019-04-23T11:41:24.000Z,98650
2019-04-23T11:43:24.000Z,98650
2019-04-23T11:45:24.000Z,98645
2019-04-23T11:47:24.000Z,98656
2019-04-23T11:57:09.000Z,98658
2019-04-23T11:58:20.000Z,98654
2019-04-23T11:59:24.000Z,98650
2019-04-23T12:01:24.000Z,98650
2019-04-23T12:02:24.000Z,98653
2019-04-23T12:04:24.000Z,98656
2019-04-23T12:05:24.000Z,98669
2019-04-23T12:07:23.000Z,98659
2019-04-23T12:08:24.000Z,98660
2019-04-23T12:15:38.000Z,98647
2019-04-23T12:16:53.000Z,98650
2019-04-23T12:17:53.000Z,98648
2019-04-23T12:20:41.000Z,98638
2019-04-23T12:23:53.000Z,98647
2019-04-23T12:24:53.000Z,98633
2019-04-23T12:25:53.000Z,98631
2019-04-23T12:38:13.000Z,98616
2019-04-23T12:42:24.000Z,98614
2019-04-23T12:44:24.000Z,98602
2019-04-23T12:46:24.000Z,98594
2019-04-23T12:48:24.000Z,98609
2019-04-23T12:49:24.000Z,98599
2019-04-23T12:50:24.000Z,98592
2019-04-23T12:52:11.000Z,98601
2019-04-23T12:53:23.000Z,98597
2019-04-23T13:07:09.000Z,98584
2019-04-23T13:08:13.000Z,98585
2019-04-23T13:09:18.000Z,98584
2019-04-23T13:10:24.000Z,98584
2019-04-23T13:12:23.000Z,98580
2019-04-23T13:13:24.000Z,98586
2019-04-23T13:15:24.000Z,98586
2019-04-23T13:17:24.000Z,98573
2019-04-23T13:19:24.000Z,98571
2019-04-23T13:21:25.000Z,98567
2019-04-23T13:27:08.000Z,98551
2019-04-23T13:28:23.000Z,98555
2019-04-23T13:29:24.000Z,98550
2019-04-23T13:31:24.000Z,98558
2019-04-23T13:34:24.000Z,98544
2019-04-23T13:36:19.000Z,98567
2019-04-23T13:37:24.000Z,98554
2019-04-23T13:39:09.000Z,98550
2019-04-23T13:47:09.000Z,98535
2019-04-23T13:48:20.000Z,98542
2019-04-23T13:49:24.000Z,98539
2019-04-23T13:50:24.000Z,98549
2019-04-23T13:52:24.000Z,98539
2019-04-23T13:54:24.000Z,98531
2019-04-23T13:55:24.000Z,98543
2019-04-23T13:59:25.000Z,98524
2019-04-23T14:07:10.000Z,98525
2019-04-23T14:08:26.000Z,98520
2019-04-23T14:10:26.000Z,98527
2019-04-23T14:14:16.000Z,98524
2019-04-23T14:16:26.000Z,98523
2019-04-23T14:18:16.000Z,98526
2019-04-23T14:21:13.000Z,98522
2019-04-23T14:22:26.000Z,98516
2019-04-23T14:24:26.000Z,98520
2019-04-23T14:30:27.000Z,98530
2019-04-23T14:37:10.000Z,98517
2019-04-23T14:38:26.000Z,98513
2019-04-23T14:40:26.000Z,98512
2019-04-23T14:42:26.000Z,98516
2019-04-23T14:44:25.000Z,98505
2019-04-23T14:46:11.000Z,98504
2019-04-23T14:47:26.000Z,98503
2019-04-23T14:49:26.000Z,98501
2019-04-23T14:51:26.000Z,98502
2019-04-23T14:53:26.000Z,98497
2019-04-23T14:55:12.000Z,98504
2019-04-23T14:56:27.000Z,98506
2019-04-23T14:58:27.000Z,98505
2019-04-23T15:07:08.000Z,98502
2019-04-23T15:08:23.000Z,98502
2019-04-23T15:09:23.000Z,98499
2019-04-23T15:11:21.000Z,98505
2019-04-23T15:12:23.000Z,98498
2019-04-23T15:13:23.000Z,98500
2019-04-23T15:15:23.000Z,98493
2019-04-23T15:18:17.000Z,98499
2019-04-23T15:19:32.000Z,98503
2019-04-23T15:20:32.000Z,98501
2019-04-23T15:22:47.000Z,98501
2019-04-23T15:24:27.000Z,98496
2019-04-23T15:25:32.000Z,98494
2019-04-23T15:38:15.000Z,98488
2019-04-23T15:41:30.000Z,98489
2019-04-23T15:43:30.000Z,98487
2019-04-23T15:46:30.000Z,98486
2019-04-23T15:48:30.000Z,98493
2019-04-23T15:50:19.000Z,98488
2019-04-23T15:51:25.000Z,98491
2019-04-23T15:52:45.000Z,98487
2019-04-23T15:54:30.000Z,98481
2019-04-23T15:56:30.000Z,98480
2019-04-23T15:58:30.000Z,98487
2019-04-23T16:00:45.000Z,98485
2019-04-23T16:08:26.000Z,98485
2019-04-23T16:09:41.000Z,98480
2019-04-23T16:11:41.000Z,98483
2019-04-23T16:13:41.000Z,98479
2019-04-23T16:15:41.000Z,98484
2019-04-23T16:16:41.000Z,98477
2019-04-23T16:18:28.000Z,98481
2019-04-23T16:20:41.000Z,98485
2019-04-23T16:22:36.000Z,98487
2019-04-23T16:23:41.000Z,98485
2019-04-23T16:25:36.000Z,98484
2019-04-23T16:26:41.000Z,98480
2019-04-23T16:27:41.000Z,98486
2019-04-23T16:38:15.000Z,98474
2019-04-23T16:39:22.000Z,98486
2019-04-23T16:40:27.000Z,98484
2019-04-23T16:42:27.000Z,98487
2019-04-23T16:45:27.000Z,98480
2019-04-23T16:47:12.000Z,98484
2019-04-23T16:48:13.000Z,98477
2019-04-23T16:49:27.000Z,98485
2019-04-23T16:50:27.000Z,98481
2019-04-23T16:58:26.000Z,98469
2019-04-23T16:59:32.000Z,98473
2019-04-23T17:00:41.000Z,98470
2019-04-23T17:02:41.000Z,98469
2019-04-23T17:04:31.000Z,98466
2019-04-23T17:05:34.000Z,98472
2019-04-23T17:06:41.000Z,98470
2019-04-23T17:07:41.000Z,98468
2019-04-23T17:09:41.000Z,98469
2019-04-23T17:18:16.000Z,98467
2019-04-23T17:19:29.000Z,98470
2019-04-23T17:22:31.000Z,98468
2019-04-23T17:24:20.000Z,98468
2019-04-23T17:25:31.000Z,98474
2019-04-23T17:26:31.000Z,98472
2019-04-23T17:28:31.000Z,98466
2019-04-23T17:38:16.000Z,98463
2019-04-23T17:39:31.000Z,98461
2019-04-23T17:41:31.000Z,98468
2019-04-23T17:42:31.000Z,98471
2019-04-23T17:44:31.000Z,98469
2019-04-23T17:46:31.000Z,98471
2019-04-23T17:47:31.000Z,98471
2019-04-23T17:50:31.000Z,98476
2019-04-23T17:52:31.000Z,98484
2019-04-23T17:54:31.000Z,98477
2019-04-23T17:55:32.000Z,98481
2019-04-23T17:57:32.000Z,98478
2019-04-23T17:59:31.000Z,98481
2019-04-23T18:08:16.000Z,98484
2019-04-23T18:09:31.000Z,98487
2019-04-23T18:11:31.000Z,98483
2019-04-23T18:13:28.000Z,98487
2019-04-23T18:15:17.000Z,98496
2019-04-23T18:16:31.000Z,98492
2019-04-23T18:20:31.000Z,98485
2019-04-23T18:22:31.000Z,98489
2019-04-23T18:25:31.000Z,98487
2019-04-23T18:26:31.000Z,98490
2019-04-23T18:28:24.000Z,98494
2019-04-23T18:29:31.000Z,98497
2019-04-23T18:30:32.000Z,98494
2019-04-23T18:38:15.000Z,98498
2019-04-23T18:39:31.000Z,98501
2019-04-23T18:40:31.000Z,98494
2019-04-23T18:41:31.000Z,98499
2019-04-23T18:43:31.000Z,98498
2019-04-23T18:44:31.000Z,98503
2019-04-23T18:46:31.000Z,98505
2019-04-23T18:48:31.000Z,98501
2019-04-23T18:51:31.000Z,98504
2019-04-23T18:53:31.000Z,98502
2019-04-23T18:55:31.000Z,98506
2019-04-23T18:57:32.000Z,98498
2019-04-23T19:08:15.000Z,98491
2019-04-23T19:09:31.000Z,98500
2019-04-23T19:11:31.000Z,98507
2019-04-23T19:13:31.000Z,98509
2019-04-23T19:15:31.000Z,98500
2019-04-23T19:16:31.000Z,98503
2019-04-23T19:18:19.000Z,98504
2019-04-23T19:19:32.000Z,98509
2019-04-23T19:28:11.000Z,98507
2019-04-23T19:30:30.000Z,98506
2019-04-23T19:32:30.000Z,98504
2019-04-23T19:34:30.000Z,98507
2019-04-23T19:35:30.000Z,98514
2019-04-23T19:37:30.000Z,98506
2019-04-23T19:39:30.000Z,98512
2019-04-23T19:40:30.000Z,98514
2019-04-23T19:48:16.000Z,98508
2019-04-23T19:51:27.000Z,98510
2019-04-23T19:52:27.000Z,98517
2019-04-23T19:54:26.000Z,98507
2019-04-23T19:56:27.000Z,98518
2019-04-23T19:58:27.000Z,98522
2019-04-23T20:00:27.000Z,98521
2019-04-23T20:01:27.000Z,98518
2019-04-23T20:05:23.000Z,98519
2019-04-23T20:07:27.000Z,98516
2019-04-23T20:18:16.000Z,98514
2019-04-23T20:19:24.000Z,98516
2019-04-23T20:21:21.000Z,98525
2019-04-23T20:24:32.000Z,98519
2019-04-23T20:28:17.000Z,98518
2019-04-23T20:29:32.000Z,98517
2019-04-23T20:30:32.000Z,98515
2019-04-23T20:38:11.000Z,98515
2019-04-23T20:41:28.000Z,98516
2019-04-23T20:42:28.000Z,98517
2019-04-23T20:45:31.000Z,98515
2019-04-23T20:47:26.000Z,98516
2019-04-23T20:48:31.000Z,98510
2019-04-23T20:49:31.000Z,98513
2019-04-23T20:50:31.000Z,98513
2019-04-23T20:58:15.000Z,98506
2019-04-23T20:59:31.000Z,98510
2019-04-23T21:00:31.000Z,98502
2019-04-23T21:03:31.000Z,98506
2019-04-23T21:04:31.000Z,98503
2019-04-23T21:05:31.000Z,98497
2019-04-23T21:07:31.000Z,98506
2019-04-23T21:09:16.000Z,98506
2019-04-23T21:10:31.000Z,98502
2019-04-23T21:12:18.000Z,98504
2019-04-23T21:13:19.000Z,98506
2019-04-23T21:15:32.000Z,98499
2019-04-23T21:17:31.000Z,98500
2019-04-23T21:19:31.000Z,98505
2019-04-23T21:21:31.000Z,98503
2019-04-23T21:23:31.000Z,98505
2019-04-23T21:25:24.000Z,98506
2019-04-23T21:26:31.000Z,98514
2019-04-23T21:28:31.000Z,98511
2019-04-23T21:30:31.000Z,98517
2019-04-23T21:31:31.000Z,98515
2019-04-23T21:33:29.000Z,98510
2019-04-23T21:34:32.000Z,98515
2019-04-23T21:36:31.000Z,98514
2019-04-23T21:48:16.000Z,98502
2019-04-23T21:49:31.000Z,98508
2019-04-23T21:51:16.000Z,98505
2019-04-23T21:58:15.000Z,98513
2019-04-23T21:59:27.000Z,98511
2019-04-23T22:00:30.000Z,98513
2019-04-23T22:02:30.000Z,98508
2019-04-23T22:03:30.000Z,98508
2019-04-23T22:05:24.000Z,98508
2019-04-23T22:06:30.000Z,98508
2019-04-23T22:07:31.000Z,98510
2019-04-23T22:18:16.000Z,98512
2019-04-23T22:19:31.000Z,98506
2019-04-23T22:22:31.000Z,98509
2019-04-23T22:24:31.000Z,98509
2019-04-23T22:26:16.000Z,98508
2019-04-23T22:27:31.000Z,98508
2019-04-23T22:28:31.000Z,98517
2019-04-23T22:38:16.000Z,98503
2019-04-23T22:39:23.000Z,98514
2019-04-23T22:40:27.000Z,98514
2019-04-23T22:42:27.000Z,98515
2019-04-23T22:44:14.000Z,98513
2019-04-23T22:45:27.000Z,98508
2019-04-23T22:47:14.000Z,98511
2019-04-23T22:49:27.000Z,98522
2019-04-23T22:51:27.000Z,98519
2019-04-23T22:58:15.000Z,98523
2019-04-23T22:59:31.000Z,98525
2019-04-23T23:01:31.000Z,98519
2019-04-23T23:03:31.000Z,98523
2019-04-23T23:05:31.000Z,98525
2019-04-23T23:06:31.000Z,98523
2019-04-23T23:08:31.000Z,98523
2019-04-23T23:10:31.000Z,98522
2019-04-23T23:14:31.000Z,98532
2019-04-23T23:16:30.000Z,98531
2019-04-23T23:28:16.000Z,98529
2019-04-23T23:29:19.000Z,98531
2019-04-23T23:30:31.000Z,98541
2019-04-23T23:32:31.000Z,98532
2019-04-23T23:34:31.000Z,98538
2019-04-23T23:36:31.000Z,98535
2019-04-23T23:37:31.000Z,98534
2019-04-23T23:39:31.000Z,98541
2019-04-23T23:41:31.000Z,98535
2019-04-23T23:42:32.000Z,98536
2019-04-23T23:58:16.000Z,98543
2019-04-23T23:59:31.000Z,98550
